createdAt,value
2019-06-01T00:00:20.420Z,594.90
2019-06-01T00:00:56.037Z,602.20
2019-06-01T00:01:31.422Z,603.10
2019-06-01T00:02:06.637Z,599.20
2019-06-01T00:02:44.191Z,608.60
2019-06-01T00:03:17.342Z,610.40
2019-06-01T00:03:52.654Z,607.20
2019-06-01T00:04:27.985Z,591.20
2019-06-01T00:05:03.490Z,596.30
2019-06-01T00:05:38.698Z,607.80
2019-06-01T00:06:14.232Z,614.70
2019-06-01T00:06:49.525Z,628.90
2019-06-01T00:07:24.773Z,607.30
2019-06-01T00:07:59.962Z,604.60
2019-06-01T00:08:35.580Z,613.30
2019-06-01T00:09:11.197Z,617.70
2019-06-01T00:09:47.257Z,626.30
2019-06-01T00:10:22.023Z,632.20
2019-06-01T00:10:57.354Z,607.60
2019-06-01T00:11:32.749Z,611.90
2019-06-01T00:12:08.987Z,613.30
2019-06-01T00:12:45.298Z,598.50
2019-06-01T00:13:20.108Z,607.20
2019-06-01T00:13:55.497Z,609.40
2019-06-01T00:14:30.939Z,605.40
2019-06-01T00:15:06.254Z,595.20
2019-06-01T00:15:41.936Z,608.80
2019-06-01T00:16:17.161Z,595.60
2019-06-01T00:16:52.658Z,585.60
2019-06-01T00:17:27.953Z,599.00
2019-06-01T00:18:03.351Z,591.80
2019-06-01T00:18:39.751Z,599.70
2019-06-01T00:19:13.871Z,594.30
2019-06-01T00:19:50.339Z,606.70
2019-06-01T00:20:24.713Z,615.90
2019-06-01T00:21:00.129Z,629.20
2019-06-01T00:21:35.628Z,614.50
2019-06-01T00:22:11.052Z,597.00
2019-06-01T00:22:47.410Z,603.50
2019-06-01T00:23:21.647Z,604.00
2019-06-01T00:23:57.140Z,619.10
2019-06-01T00:24:32.586Z,614.20
2019-06-01T00:25:07.769Z,617.30
2019-06-01T00:25:43.082Z,616.60
2019-06-01T00:26:18.467Z,621.20
2019-06-01T00:26:53.495Z,601.90
2019-06-01T00:27:28.685Z,605.20
2019-06-01T00:28:03.807Z,590.20
2019-06-01T00:28:39.386Z,597.80
2019-06-01T00:29:14.822Z,585.60
2019-06-01T00:29:50.133Z,584.60
2019-06-01T00:30:27.325Z,594.90
2019-06-01T00:31:01.138Z,597.40
2019-06-01T00:31:36.358Z,581.10
2019-06-01T00:32:11.756Z,595.50
2019-06-01T00:32:47.314Z,606.70
2019-06-01T00:33:22.573Z,618.50
2019-06-01T00:33:58.303Z,606.10
2019-06-01T00:34:33.711Z,588.70
2019-06-01T00:35:09.155Z,593.50
2019-06-01T00:35:45.316Z,610.20
2019-06-01T00:36:19.663Z,595.90
2019-06-01T00:36:54.965Z,599.50
2019-06-01T00:37:30.282Z,597.20
2019-06-01T00:38:05.559Z,595.70
2019-06-01T00:38:41.593Z,607.30
2019-06-01T00:39:16.190Z,605.10
2019-06-01T00:39:51.993Z,591.80
2019-06-01T00:40:26.736Z,591.50
2019-06-01T00:41:02.133Z,612.70
2019-06-01T00:41:37.323Z,619.70
2019-06-01T00:42:12.879Z,618.50
2019-06-01T00:42:48.556Z,610.10
2019-06-01T00:43:23.772Z,596.10
2019-06-01T00:43:59.053Z,603.40
2019-06-01T00:44:34.497Z,611.00
2019-06-01T00:45:09.977Z,610.80
2019-06-01T00:45:46.459Z,599.90
2019-06-01T00:46:20.697Z,591.70
2019-06-01T00:46:56.116Z,602.30
2019-06-01T00:47:31.313Z,599.80
2019-06-01T00:48:06.820Z,596.80
2019-06-01T00:48:42.131Z,607.70
2019-06-01T00:49:17.545Z,622.40
2019-06-01T00:49:53.094Z,612.10
2019-06-01T00:50:28.165Z,605.10
2019-06-01T00:51:03.466Z,608.20
2019-06-01T00:51:38.788Z,610.50
2019-06-01T00:52:14.190Z,627.00
2019-06-01T00:52:49.729Z,604.10
2019-06-01T00:53:25.082Z,608.30
2019-06-01T00:54:00.411Z,610.40
2019-06-01T00:54:35.719Z,627.80
2019-06-01T00:55:11.157Z,629.90
2019-06-01T00:55:47.320Z,602.50
2019-06-01T00:56:21.871Z,605.30
2019-06-01T00:56:57.176Z,602.40
2019-06-01T00:57:32.477Z,609.90
2019-06-01T00:58:07.794Z,605.60
2019-06-01T00:58:43.619Z,602.50
2019-06-01T00:59:18.490Z,606.90
2019-06-01T00:59:54.952Z,617.20
2019-06-01T01:00:42.788Z,619.00
2019-06-01T01:01:04.312Z,627.70
2019-06-01T01:01:39.739Z,619.00
2019-06-01T01:02:15.347Z,600.40
2019-06-01T01:02:50.653Z,604.00
2019-06-01T01:03:26.058Z,616.70
2019-06-01T01:04:01.156Z,637.60
2019-06-01T01:04:36.506Z,627.80
2019-06-01T01:05:11.922Z,630.60
2019-06-01T01:05:48.390Z,625.80
2019-06-01T01:06:22.736Z,622.90
2019-06-01T01:06:58.316Z,630.90
2019-06-01T01:07:33.842Z,634.00
2019-06-01T01:08:09.363Z,621.60
2019-06-01T01:08:44.927Z,599.90
2019-06-01T01:09:20.097Z,606.20
2019-06-01T01:09:55.373Z,617.30
2019-06-01T01:10:30.691Z,624.60
2019-06-01T01:11:05.982Z,627.90
2019-06-01T01:11:41.319Z,627.70
2019-06-01T01:12:17.218Z,612.00
2019-06-01T01:12:53.160Z,620.80
2019-06-01T01:13:27.520Z,627.50
2019-06-01T01:14:03.030Z,614.90
2019-06-01T01:14:38.341Z,624.80
2019-06-01T01:15:13.768Z,616.10
2019-06-01T01:15:49.310Z,619.00
2019-06-01T01:16:24.373Z,626.90
2019-06-01T01:16:59.851Z,633.80
2019-06-01T01:17:35.274Z,615.10
2019-06-01T01:18:10.470Z,612.80
2019-06-01T01:18:46.079Z,603.20
2019-06-01T01:19:21.182Z,590.10
2019-06-01T01:19:56.509Z,611.90
2019-06-01T01:20:31.796Z,625.10
2019-06-01T01:21:07.421Z,602.10
2019-06-01T01:21:42.716Z,611.00
2019-06-01T01:22:18.333Z,617.90
2019-06-01T01:22:54.300Z,619.90
2019-06-01T01:23:29.019Z,626.70
2019-06-01T01:24:04.211Z,626.00
2019-06-01T01:24:39.968Z,611.30
2019-06-01T01:25:15.738Z,612.90
2019-06-01T01:25:50.964Z,630.50
2019-06-01T01:26:26.256Z,624.90
2019-06-01T01:27:01.579Z,625.50
2019-06-01T01:27:37.254Z,629.40
2019-06-01T01:28:13.065Z,618.60
2019-06-01T01:28:48.796Z,608.40
2019-06-01T01:29:23.681Z,598.80
2019-06-01T01:29:58.975Z,610.40
2019-06-01T01:30:34.351Z,616.60
2019-06-01T01:31:13.692Z,607.10
2019-06-01T01:31:44.602Z,617.00
2019-06-01T01:32:19.991Z,609.50
2019-06-01T01:32:55.823Z,607.80
2019-06-01T01:33:30.322Z,613.60
2019-06-01T01:34:05.750Z,625.20
2019-06-01T01:34:41.367Z,619.70
2019-06-01T01:35:16.694Z,613.80
2019-06-01T01:35:52.620Z,619.50
2019-06-01T01:36:27.523Z,619.60
2019-06-01T01:37:02.699Z,611.60
2019-06-01T01:37:37.916Z,593.20
2019-06-01T01:38:13.339Z,614.40
2019-06-01T01:38:50.340Z,627.30
2019-06-01T01:39:24.190Z,620.20
2019-06-01T01:39:59.789Z,610.60
2019-06-01T01:40:35.204Z,609.10
2019-06-01T01:41:10.390Z,602.40
2019-06-01T01:41:45.822Z,614.20
2019-06-01T01:42:21.209Z,611.80
2019-06-01T01:42:56.835Z,604.40
2019-06-01T01:43:32.043Z,607.10
2019-06-01T01:44:07.456Z,605.10
2019-06-01T01:44:42.875Z,622.70
2019-06-01T01:45:18.094Z,629.20
2019-06-01T01:45:54.721Z,626.90
2019-06-01T01:46:28.610Z,606.70
2019-06-01T01:47:03.895Z,614.20
2019-06-01T01:47:39.133Z,612.20
2019-06-01T01:48:14.530Z,614.80
2019-06-01T01:48:49.954Z,624.00
2019-06-01T01:49:25.093Z,615.30
2019-06-01T01:50:00.208Z,602.20
2019-06-01T01:50:35.404Z,597.70
2019-06-01T01:51:10.623Z,623.40
2019-06-01T01:51:45.821Z,616.90
2019-06-01T01:52:21.361Z,616.50
2019-06-01T01:52:57.285Z,619.90
2019-06-01T01:53:32.202Z,630.90
2019-06-01T01:54:07.513Z,626.70
2019-06-01T01:54:42.563Z,627.40
2019-06-01T01:55:18.061Z,608.30
2019-06-01T01:55:55.047Z,599.70
2019-06-01T01:56:28.993Z,608.70
2019-06-01T01:57:07.050Z,604.60
2019-06-01T01:57:39.611Z,618.80
2019-06-01T01:58:14.942Z,614.20
2019-06-01T01:58:50.449Z,616.40
2019-06-01T01:59:25.749Z,624.50
2019-06-01T02:00:01.815Z,628.70
2019-06-01T02:00:36.931Z,619.60
2019-06-01T02:01:22.422Z,617.80
2019-06-01T02:01:47.462Z,618.80
2019-06-01T02:02:22.570Z,614.90
2019-06-01T02:02:57.964Z,636.00
2019-06-01T02:03:33.083Z,648.10
2019-06-01T02:04:08.407Z,627.30
2019-06-01T02:04:43.834Z,599.60
2019-06-01T02:05:19.155Z,602.80
2019-06-01T02:05:54.931Z,605.40
2019-06-01T02:06:29.767Z,614.50
2019-06-01T02:07:04.869Z,611.90
2019-06-01T02:07:40.194Z,621.00
2019-06-01T02:08:15.899Z,612.00
2019-06-01T02:08:51.220Z,612.20
2019-06-01T02:09:26.340Z,620.40
2019-06-01T02:10:01.949Z,611.80
2019-06-01T02:10:36.761Z,612.10
2019-06-01T02:11:11.988Z,614.50
2019-06-01T02:11:47.577Z,634.00
2019-06-01T02:12:23.231Z,631.80
2019-06-01T02:12:59.601Z,615.30
2019-06-01T02:13:33.867Z,617.10
2019-06-01T02:14:09.160Z,605.70
2019-06-01T02:14:44.517Z,599.30
2019-06-01T02:15:19.917Z,634.70
2019-06-01T02:15:56.154Z,618.10
2019-06-01T02:16:30.740Z,626.20
2019-06-01T02:17:06.161Z,613.60
2019-06-01T02:17:41.760Z,612.30
2019-06-01T02:18:17.301Z,612.30
2019-06-01T02:18:53.873Z,603.90
2019-06-01T02:19:28.134Z,616.10
2019-06-01T02:20:03.639Z,624.00
2019-06-01T02:20:38.870Z,616.70
2019-06-01T02:21:14.178Z,623.20
2019-06-01T02:21:49.670Z,613.10
2019-06-01T02:22:24.994Z,606.90
2019-06-01T02:23:00.975Z,623.70
2019-06-01T02:23:36.141Z,617.60
2019-06-01T02:24:11.332Z,620.60
2019-06-01T02:24:46.679Z,623.30
2019-06-01T02:25:22.266Z,625.70
2019-06-01T02:25:58.885Z,623.30
2019-06-01T02:26:33.388Z,621.40
2019-06-01T02:27:08.625Z,626.50
2019-06-01T02:27:44.027Z,625.50
2019-06-01T02:28:19.243Z,620.30
2019-06-01T02:28:55.299Z,628.10
2019-06-01T02:29:29.398Z,640.20
2019-06-01T02:30:05.567Z,622.90
2019-06-01T02:30:40.238Z,618.20
2019-06-01T02:31:15.524Z,619.90
2019-06-01T02:31:50.766Z,637.20
2019-06-01T02:32:26.050Z,646.80
2019-06-01T02:33:02.412Z,627.70
2019-06-01T02:33:36.586Z,627.30
2019-06-01T02:34:11.874Z,642.00
2019-06-01T02:34:47.301Z,641.60
2019-06-01T02:35:22.821Z,640.60
2019-06-01T02:35:58.161Z,604.60
2019-06-01T02:36:33.444Z,616.40
2019-06-01T02:37:08.957Z,612.40
2019-06-01T02:37:44.186Z,616.20
2019-06-01T02:38:19.580Z,628.60
2019-06-01T02:38:56.409Z,619.30
2019-06-01T02:39:29.921Z,615.60
2019-06-01T02:40:05.652Z,613.80
2019-06-01T02:40:40.848Z,626.90
2019-06-01T02:41:16.380Z,635.40
2019-06-01T02:41:51.879Z,617.00
2019-06-01T02:42:27.000Z,612.50
2019-06-01T02:43:03.680Z,619.20
2019-06-01T02:43:37.628Z,626.80
2019-06-01T02:44:12.817Z,643.60
2019-06-01T02:44:47.982Z,607.20
2019-06-01T02:45:23.176Z,609.90
2019-06-01T02:45:58.218Z,616.90
2019-06-01T02:46:35.530Z,615.50
2019-06-01T02:47:08.833Z,630.00
2019-06-01T02:47:44.126Z,623.50
2019-06-01T02:48:19.442Z,627.20
2019-06-01T02:48:55.482Z,634.40
2019-06-01T02:49:29.812Z,616.30
2019-06-01T02:50:06.368Z,604.30
2019-06-01T02:50:40.631Z,603.00
2019-06-01T02:51:15.729Z,625.10
2019-06-01T02:51:51.048Z,627.90
2019-06-01T02:52:26.251Z,631.90
2019-06-01T02:53:01.699Z,623.30
2019-06-01T02:53:36.908Z,629.40
2019-06-01T02:54:12.336Z,646.10
2019-06-01T02:54:47.844Z,630.60
2019-06-01T02:55:23.176Z,634.80
2019-06-01T02:55:58.470Z,638.70
2019-06-01T02:56:33.797Z,649.50
2019-06-01T02:57:09.118Z,631.80
2019-06-01T02:57:44.335Z,631.40
2019-06-01T02:58:19.568Z,624.40
2019-06-01T02:58:56.025Z,605.00
2019-06-01T02:59:30.188Z,608.30
2019-06-01T03:00:06.629Z,634.60
2019-06-01T03:00:40.723Z,633.50
2019-06-01T03:01:16.456Z,627.40
2019-06-01T03:01:57.236Z,608.00
2019-06-01T03:02:27.488Z,602.00
2019-06-01T03:03:02.989Z,625.80
2019-06-01T03:03:38.230Z,632.40
2019-06-01T03:04:13.528Z,629.50
2019-06-01T03:04:49.064Z,629.70
2019-06-01T03:05:24.449Z,616.20
2019-06-01T03:05:59.872Z,616.70
2019-06-01T03:06:35.352Z,621.30
2019-06-01T03:07:10.771Z,635.00
2019-06-01T03:07:46.458Z,641.60
2019-06-01T03:08:22.084Z,643.90
2019-06-01T03:08:57.671Z,628.00
2019-06-01T03:09:32.818Z,632.30
2019-06-01T03:10:08.979Z,629.30
2019-06-01T03:10:43.651Z,622.70
2019-06-01T03:11:18.940Z,639.50
2019-06-01T03:11:54.664Z,634.80
2019-06-01T03:12:29.947Z,644.60
2019-06-01T03:13:06.155Z,624.60
2019-06-01T03:13:40.782Z,616.50
2019-06-01T03:14:16.312Z,625.30
2019-06-01T03:14:51.829Z,656.80
2019-06-01T03:15:27.245Z,627.30
2019-06-01T03:16:03.287Z,631.20
2019-06-01T03:16:40.094Z,633.70
2019-06-01T03:17:12.875Z,641.60
2019-06-01T03:17:48.086Z,644.30
2019-06-01T03:18:23.279Z,641.90
2019-06-01T03:18:59.591Z,625.30
2019-06-01T03:19:34.042Z,600.10
2019-06-01T03:20:09.365Z,590.70
2019-06-01T03:20:44.677Z,607.30
2019-06-01T03:21:19.997Z,586.80
2019-06-01T03:21:55.572Z,585.70
2019-06-01T03:22:30.800Z,580.90
2019-06-01T03:23:05.992Z,587.70
2019-06-01T03:23:41.320Z,590.80
2019-06-01T03:24:16.722Z,598.80
2019-06-01T03:24:52.075Z,585.40
2019-06-01T03:25:27.672Z,589.40
2019-06-01T03:26:04.198Z,587.50
2019-06-01T03:26:38.500Z,590.20
2019-06-01T03:27:13.816Z,600.60
2019-06-01T03:27:49.546Z,599.40
2019-06-01T03:28:24.981Z,594.10
2019-06-01T03:29:00.490Z,564.20
2019-06-01T03:29:36.097Z,563.70
2019-06-01T03:30:12.940Z,589.50
2019-06-01T03:30:46.619Z,619.50
2019-06-01T03:31:22.023Z,619.20
2019-06-01T03:32:17.641Z,617.60
2019-06-01T03:32:36.720Z,610.60
2019-06-01T03:33:10.347Z,590.90
2019-06-01T03:33:43.470Z,595.10
2019-06-01T03:34:19.230Z,595.50
2019-06-01T03:34:54.621Z,605.40
2019-06-01T03:35:30.040Z,591.50
2019-06-01T03:36:05.218Z,582.90
2019-06-01T03:36:40.664Z,587.40
2019-06-01T03:37:15.854Z,606.90
2019-06-01T03:37:51.504Z,596.90
2019-06-01T03:38:26.802Z,599.10
2019-06-01T03:39:02.327Z,601.20
2019-06-01T03:39:37.674Z,573.60
2019-06-01T03:40:23.139Z,579.00
2019-06-01T03:40:48.089Z,583.90
2019-06-01T03:41:23.702Z,591.20
2019-06-01T03:41:59.201Z,598.40
2019-06-01T03:42:34.921Z,577.90
2019-06-01T03:43:11.315Z,562.30
2019-06-01T03:43:45.939Z,577.50
2019-06-01T03:44:21.385Z,595.20
2019-06-01T03:44:56.581Z,602.00
2019-06-01T03:45:32.002Z,582.10
2019-06-01T03:46:08.666Z,598.20
2019-06-01T03:46:42.921Z,599.40
2019-06-01T03:47:18.312Z,597.80
2019-06-01T03:47:53.850Z,584.70
2019-06-01T03:48:29.247Z,591.60
2019-06-01T03:49:05.655Z,588.50
2019-06-01T03:49:40.228Z,578.10
2019-06-01T03:50:15.418Z,570.40
2019-06-01T03:50:51.020Z,581.70
2019-06-01T03:51:26.653Z,597.00
2019-06-01T03:52:02.685Z,588.00
2019-06-01T03:52:37.183Z,579.90
2019-06-01T03:53:12.635Z,571.50
2019-06-01T03:53:48.231Z,566.30
2019-06-01T03:54:23.783Z,575.60
2019-06-01T03:54:59.383Z,568.70
2019-06-01T03:55:35.018Z,581.20
2019-06-01T03:56:11.098Z,597.00
2019-06-01T03:56:45.926Z,593.00
2019-06-01T03:57:21.139Z,559.90
2019-06-01T03:57:56.465Z,564.00
2019-06-01T03:58:31.762Z,578.30
2019-06-01T03:59:07.276Z,575.70
2019-06-01T03:59:42.203Z,590.10
2019-06-01T04:00:17.740Z,576.10
2019-06-01T04:00:52.957Z,564.80
2019-06-01T04:01:28.568Z,559.80
2019-06-01T04:02:05.057Z,570.90
2019-06-01T04:02:39.307Z,590.00
2019-06-01T04:03:14.627Z,590.00
2019-06-01T04:03:50.058Z,578.70
2019-06-01T04:04:25.473Z,571.80
2019-06-01T04:05:01.173Z,580.80
2019-06-01T04:05:36.078Z,594.00
2019-06-01T04:06:11.597Z,590.00
2019-06-01T04:06:47.086Z,588.00
2019-06-01T04:07:22.214Z,570.60
2019-06-01T04:07:57.610Z,560.80
2019-06-01T04:08:32.935Z,587.70
2019-06-01T04:09:08.246Z,595.70
2019-06-01T04:09:43.492Z,590.90
2019-06-01T04:10:18.681Z,586.20
2019-06-01T04:10:54.014Z,576.10
2019-06-01T04:11:29.202Z,585.30
2019-06-01T04:12:05.460Z,584.80
2019-06-01T04:12:40.043Z,586.70
2019-06-01T04:13:15.363Z,593.90
2019-06-01T04:13:50.652Z,589.50
2019-06-01T04:14:26.103Z,579.90
2019-06-01T04:15:08.487Z,570.50
2019-06-01T04:15:36.819Z,587.10
2019-06-01T04:16:12.223Z,562.30
2019-06-01T04:16:47.752Z,557.70
2019-06-01T04:17:23.254Z,586.80
2019-06-01T04:17:58.485Z,596.90
2019-06-01T04:18:33.894Z,586.20
2019-06-01T04:19:09.932Z,570.20
2019-06-01T04:19:44.639Z,571.80
2019-06-01T04:20:19.976Z,572.80
2019-06-01T04:20:55.060Z,576.30
2019-06-01T04:21:30.485Z,583.90
2019-06-01T04:22:05.880Z,586.90
2019-06-01T04:22:40.933Z,592.90
2019-06-01T04:23:16.228Z,583.40
2019-06-01T04:23:51.656Z,590.20
2019-06-01T04:24:26.983Z,596.80
2019-06-01T04:25:02.400Z,584.70
2019-06-01T04:25:37.814Z,570.20
2019-06-01T04:26:13.251Z,577.90
2019-06-01T04:26:48.639Z,595.40
2019-06-01T04:27:23.982Z,597.90
2019-06-01T04:27:59.069Z,572.50
2019-06-01T04:28:34.288Z,551.50
2019-06-01T04:29:10.322Z,559.90
2019-06-01T04:29:44.963Z,581.50
2019-06-01T04:30:20.459Z,588.70
2019-06-01T04:30:56.137Z,566.10
2019-06-01T04:31:31.237Z,569.70
2019-06-01T04:32:06.564Z,568.50
2019-06-01T04:32:49.699Z,561.70
2019-06-01T04:33:17.010Z,563.60
2019-06-01T04:33:52.498Z,552.80
2019-06-01T04:34:27.713Z,553.50
2019-06-01T04:35:03.488Z,566.20
2019-06-01T04:35:38.573Z,577.60
2019-06-01T04:36:13.885Z,597.80
2019-06-01T04:36:49.507Z,581.00
2019-06-01T04:37:24.797Z,558.90
2019-06-01T04:38:00.028Z,547.20
2019-06-01T04:38:35.518Z,558.30
2019-06-01T04:39:11.684Z,580.00
2019-06-01T04:39:46.244Z,574.40
2019-06-01T04:40:21.592Z,566.20
2019-06-01T04:40:57.007Z,557.90
2019-06-01T04:41:32.212Z,565.10
2019-06-01T04:42:07.706Z,570.30
2019-06-01T04:42:43.488Z,565.40
2019-06-01T04:43:18.775Z,555.10
2019-06-01T04:43:54.013Z,554.20
2019-06-01T04:44:29.407Z,567.90
2019-06-01T04:45:06.662Z,565.40
2019-06-01T04:45:40.069Z,569.10
2019-06-01T04:46:15.598Z,561.60
2019-06-01T04:46:51.206Z,545.40
2019-06-01T04:47:26.530Z,539.10
2019-06-01T04:48:02.049Z,542.40
2019-06-01T04:48:37.255Z,553.40
2019-06-01T04:49:13.372Z,560.20
2019-06-01T04:49:48.190Z,530.00
2019-06-01T04:50:23.585Z,530.60
2019-06-01T04:50:58.932Z,496.50
2019-06-01T04:51:34.324Z,493.20
2019-06-01T04:52:11.786Z,513.70
2019-06-01T04:52:45.259Z,509.10
2019-06-01T04:53:20.788Z,492.30
2019-06-01T04:53:56.280Z,495.80
2019-06-01T04:54:31.713Z,491.10
2019-06-01T04:55:07.262Z,487.60
2019-06-01T04:55:42.416Z,495.90
2019-06-01T04:56:18.156Z,512.60
2019-06-01T04:56:53.473Z,503.10
2019-06-01T04:57:29.087Z,490.00
2019-06-01T04:58:04.630Z,486.50
2019-06-01T04:58:39.795Z,480.10
2019-06-01T04:59:15.293Z,474.90
2019-06-01T04:59:50.301Z,488.70
2019-06-01T05:00:27.966Z,485.20
2019-06-01T05:01:01.354Z,460.90
2019-06-01T05:01:36.874Z,473.30
2019-06-01T05:02:13.069Z,474.90
2019-06-01T05:02:47.503Z,486.10
2019-06-01T05:03:22.893Z,486.10
2019-06-01T05:03:58.435Z,467.30
2019-06-01T05:04:33.728Z,470.90
2019-06-01T05:05:09.294Z,495.30
2019-06-01T05:05:44.553Z,499.60
2019-06-01T05:06:19.918Z,487.20
2019-06-01T05:06:55.528Z,474.40
2019-06-01T05:07:30.868Z,472.10
2019-06-01T05:08:07.038Z,455.60
2019-06-01T05:08:41.517Z,460.00
2019-06-01T05:09:16.700Z,472.70
2019-06-01T05:09:52.031Z,464.00
2019-06-01T05:10:27.332Z,457.20
2019-06-01T05:11:05.259Z,465.40
2019-06-01T05:11:38.186Z,472.80
2019-06-01T05:12:13.618Z,476.10
2019-06-01T05:12:48.648Z,454.40
2019-06-01T05:13:24.150Z,450.80
2019-06-01T05:13:59.551Z,465.30
2019-06-01T05:14:34.868Z,454.20
2019-06-01T05:15:10.077Z,450.20
2019-06-01T05:15:45.587Z,444.70
2019-06-01T05:16:20.825Z,440.30
2019-06-01T05:16:56.139Z,446.30
2019-06-01T05:17:31.641Z,439.90
2019-06-01T05:18:07.853Z,444.20
2019-06-01T05:18:42.070Z,432.70
2019-06-01T05:19:17.288Z,427.40
2019-06-01T05:19:52.783Z,434.00
2019-06-01T05:20:28.206Z,433.60
2019-06-01T05:21:03.413Z,437.80
2019-06-01T05:21:38.690Z,438.40
2019-06-01T05:22:14.621Z,448.30
2019-06-01T05:22:49.429Z,449.30
2019-06-01T05:23:24.923Z,433.30
2019-06-01T05:24:00.258Z,421.70
2019-06-01T05:24:35.849Z,431.60
2019-06-01T05:25:12.207Z,432.10
2019-06-01T05:25:46.482Z,423.10
2019-06-01T05:26:21.812Z,422.50
2019-06-01T05:26:57.047Z,432.40
2019-06-01T05:27:32.370Z,434.00
2019-06-01T05:28:09.020Z,443.20
2019-06-01T05:28:42.992Z,440.40
2019-06-01T05:29:18.398Z,424.70
2019-06-01T05:29:53.738Z,420.30
2019-06-01T05:30:29.130Z,431.90
2019-06-01T05:31:04.457Z,429.60
2019-06-01T05:31:39.783Z,425.80
2019-06-01T05:32:16.664Z,423.60
2019-06-01T05:32:50.969Z,423.50
2019-06-01T05:33:36.903Z,422.90
2019-06-01T05:34:01.620Z,437.00
2019-06-01T05:34:36.950Z,429.90
2019-06-01T05:35:12.239Z,424.00
2019-06-01T05:35:47.568Z,427.80
2019-06-01T05:36:22.663Z,431.80
2019-06-01T05:36:58.115Z,442.80
2019-06-01T05:37:33.705Z,436.90
2019-06-01T05:38:10.011Z,428.90
2019-06-01T05:38:44.552Z,429.40
2019-06-01T05:39:19.775Z,437.40
2019-06-01T05:39:55.580Z,450.00
2019-06-01T05:40:30.905Z,436.90
2019-06-01T05:41:06.620Z,442.90
2019-06-01T05:41:41.931Z,441.90
2019-06-01T05:42:18.887Z,442.70
2019-06-01T05:42:52.986Z,447.50
2019-06-01T05:43:28.169Z,444.70
2019-06-01T05:44:03.422Z,432.10
2019-06-01T05:44:38.810Z,433.20
2019-06-01T05:45:15.051Z,436.70
2019-06-01T05:45:49.224Z,432.40
2019-06-01T05:46:24.444Z,429.50
2019-06-01T05:46:59.605Z,436.60
2019-06-01T05:47:34.885Z,435.20
2019-06-01T05:48:13.001Z,437.40
2019-06-01T05:48:45.823Z,432.10
2019-06-01T05:49:22.689Z,440.60
2019-06-01T05:49:56.641Z,437.00
2019-06-01T05:50:31.930Z,433.90
2019-06-01T05:51:07.369Z,436.10
2019-06-01T05:51:42.563Z,430.50
2019-06-01T05:52:18.799Z,445.20
2019-06-01T05:52:53.506Z,458.00
2019-06-01T05:53:28.852Z,449.20
2019-06-01T05:54:04.554Z,435.40
2019-06-01T05:54:40.089Z,443.10
2019-06-01T05:55:16.658Z,451.20
2019-06-01T05:55:51.104Z,458.00
2019-06-01T05:56:26.392Z,459.30
2019-06-01T05:57:01.927Z,449.60
2019-06-01T05:57:37.167Z,457.20
2019-06-01T05:58:13.002Z,470.30
2019-06-01T05:58:47.861Z,474.40
2019-06-01T05:59:23.302Z,466.50
2019-06-01T05:59:58.612Z,456.60
2019-06-01T06:00:34.238Z,453.80
2019-06-01T06:01:10.357Z,452.90
2019-06-01T06:01:44.977Z,454.80
2019-06-01T06:02:20.184Z,462.90
2019-06-01T06:02:55.727Z,447.80
2019-06-01T06:03:39.935Z,458.00
2019-06-01T06:04:06.670Z,454.70
2019-06-01T06:04:42.089Z,463.50
2019-06-01T06:05:17.330Z,466.70
2019-06-01T06:05:52.716Z,480.20
2019-06-01T06:06:27.841Z,493.70
2019-06-01T06:07:02.940Z,500.50
2019-06-01T06:07:38.363Z,491.20
2019-06-01T06:08:14.462Z,483.40
2019-06-01T06:08:49.191Z,486.40
2019-06-01T06:09:24.726Z,490.10
2019-06-01T06:09:59.910Z,486.30
2019-06-01T06:10:35.250Z,483.10
2019-06-01T06:11:10.821Z,490.30
2019-06-01T06:11:45.868Z,495.30
2019-06-01T06:12:21.586Z,507.40
2019-06-01T06:12:56.908Z,525.00
2019-06-01T06:13:32.305Z,540.90
2019-06-01T06:14:07.657Z,540.40
2019-06-01T06:14:42.875Z,548.90
2019-06-01T06:15:19.633Z,552.10
2019-06-01T06:15:53.335Z,534.80
2019-06-01T06:16:28.657Z,536.10
2019-06-01T06:17:04.055Z,542.80
2019-06-01T06:17:39.888Z,546.70
2019-06-01T06:18:15.708Z,562.60
2019-06-01T06:18:50.533Z,571.60
2019-06-01T06:19:26.164Z,582.70
2019-06-01T06:20:01.393Z,586.70
2019-06-01T06:20:36.694Z,587.70
2019-06-01T06:21:12.027Z,596.50
2019-06-01T06:21:47.434Z,606.50
2019-06-01T06:22:22.877Z,616.80
2019-06-01T06:22:58.183Z,627.70
2019-06-01T06:23:33.411Z,620.90
2019-06-01T06:24:08.915Z,617.50
2019-06-01T06:24:44.159Z,617.20
2019-06-01T06:25:19.261Z,625.00
2019-06-01T06:25:54.406Z,628.20
2019-06-01T06:26:29.705Z,631.30
2019-06-01T06:27:04.934Z,634.40
2019-06-01T06:27:40.068Z,627.70
2019-06-01T06:28:16.446Z,628.50
2019-06-01T06:28:50.819Z,633.70
2019-06-01T06:29:26.354Z,637.10
2019-06-01T06:30:01.666Z,636.10
2019-06-01T06:30:37.200Z,629.40
2019-06-01T06:31:12.939Z,621.50
2019-06-01T06:31:47.938Z,613.00
2019-06-01T06:32:23.433Z,631.80
2019-06-01T06:32:58.289Z,644.00
2019-06-01T06:33:36.689Z,644.40
2019-06-01T06:34:09.148Z,635.40
2019-06-01T06:34:44.770Z,623.60
2019-06-01T06:35:20.212Z,582.40
2019-06-01T06:35:55.706Z,566.70
2019-06-01T06:36:31.250Z,566.00
2019-06-01T06:37:06.250Z,557.20
2019-06-01T06:37:42.394Z,543.70
2019-06-01T06:38:17.781Z,559.00
2019-06-01T06:38:52.740Z,594.40
2019-06-01T06:39:28.048Z,591.70
2019-06-01T06:40:03.500Z,582.80
2019-06-01T06:40:38.710Z,610.40
2019-06-01T06:41:14.441Z,624.20
2019-06-01T06:41:49.854Z,630.80
2019-06-01T06:42:25.287Z,628.20
2019-06-01T06:43:00.617Z,618.70
2019-06-01T06:43:35.977Z,632.70
2019-06-01T06:44:11.443Z,644.60
2019-06-01T06:44:46.886Z,633.30
2019-06-01T06:45:22.848Z,637.20
2019-06-01T06:45:57.913Z,639.30
2019-06-01T06:46:33.416Z,636.40
2019-06-01T06:47:08.963Z,641.40
2019-06-01T06:47:44.296Z,637.40
2019-06-01T06:48:19.653Z,634.50
2019-06-01T06:48:54.879Z,634.60
2019-06-01T06:49:30.201Z,640.90
2019-06-01T06:50:05.415Z,636.10
2019-06-01T06:50:40.778Z,631.30
2019-06-01T06:51:17.254Z,621.70
2019-06-01T06:51:51.625Z,623.00
2019-06-01T06:52:26.835Z,630.90
2019-06-01T06:53:02.059Z,612.50
2019-06-01T06:53:37.173Z,604.00
2019-06-01T06:54:14.559Z,602.80
2019-06-01T06:54:48.314Z,600.40
2019-06-01T06:55:24.015Z,580.70
2019-06-01T06:55:58.785Z,576.10
2019-06-01T06:56:34.424Z,588.30
2019-06-01T06:57:09.730Z,595.30
2019-06-01T06:57:45.174Z,595.20
2019-06-01T06:58:21.030Z,590.30
2019-06-01T06:58:56.167Z,588.70
2019-06-01T06:59:31.424Z,588.00
2019-06-01T07:00:06.576Z,590.10
2019-06-01T07:00:41.781Z,583.60
2019-06-01T07:01:17.069Z,577.20
2019-06-01T07:01:52.443Z,587.00
2019-06-01T07:02:28.265Z,583.20
2019-06-01T07:03:03.673Z,572.60
2019-06-01T07:03:39.130Z,561.10
2019-06-01T07:04:14.531Z,548.30
2019-06-01T07:04:49.762Z,548.60
2019-06-01T07:05:25.528Z,555.80
2019-06-01T07:06:00.287Z,557.40
2019-06-01T07:06:35.607Z,550.40
2019-06-01T07:07:10.736Z,545.30
2019-06-01T07:07:46.034Z,545.90
2019-06-01T07:08:21.826Z,540.20
2019-06-01T07:08:57.040Z,546.00
2019-06-01T07:09:32.230Z,554.00
2019-06-01T07:10:07.655Z,549.90
2019-06-01T07:10:42.778Z,548.30
2019-06-01T07:11:19.087Z,548.70
2019-06-01T07:11:53.627Z,544.80
2019-06-01T07:12:29.050Z,557.10
2019-06-01T07:13:04.291Z,567.90
2019-06-01T07:13:39.801Z,560.60
2019-06-01T07:14:15.120Z,558.20
2019-06-01T07:14:50.340Z,551.20
2019-06-01T07:15:25.867Z,555.00
2019-06-01T07:16:03.772Z,564.00
2019-06-01T07:16:36.321Z,563.70
2019-06-01T07:17:11.615Z,561.60
2019-06-01T07:17:47.250Z,563.90
2019-06-01T07:18:23.543Z,567.00
2019-06-01T07:18:58.120Z,567.80
2019-06-01T07:19:33.528Z,561.20
2019-06-01T07:20:08.760Z,573.90
2019-06-01T07:20:43.890Z,572.50
2019-06-01T07:21:19.572Z,564.50